KABY/ABY METAR and TAF weather

Enter ICAO airport designator
Station Type Date Time Source
KABY METAR 2022/12/04 10:53 UTC NOAA

KABY 041053Z AUTO 34004KT 1 1/2SM BR OVC002 16/15 A3023 RMK AO2 SLP237 T01560150


Station Type Date Time Source
KABY Decoded METAR 2022/12/04 10:53 UTC NOAA

ALBANY SOUTHWEST GEORGIA, GA, United States (KABY) 31-32N 084-12W 58M
Dec 04, 2022 - 05:53 AM EST / 2022.12.04 1053 UTC
Wind: from the NNW (340 degrees) at 5 MPH (4 KT):0
Visibility: 1 1/2 mile(s):0
Sky conditions: overcast
Weather: mist
Temperature: 60.1 F (15.6 C)
Dew Point: 59.0 F (15.0 C)
Relative Humidity: 96%
Pressure (altimeter): 30.23 in. Hg (1023 hPa)
ob: KABY 041053Z AUTO 34004KT 1 1/2SM BR OVC002 16/15 A3023 RMK AO2 SLP237 T01560150
cycle: 11

Station Type Date Time Source
KABY TAF 2022/12/04 08:57 UTC NOAA

TAF
AMD KABY 040754Z 0408/0506 02003KT 1 1/2SM BR SCT002 BKN020 OVC030
TEMPO 0408/0412 1/2SM FG VV002
FM041400 VRB03KT P6SM SCT005 BKN012 OVC020
FM041800 30005KT P6SM BKN020
FM042200 31005KT P6SM SCT020 OVC200
FM050500 09003KT 3SM BR SCT003 BKN035 OVC150

Example: see airport list